Aeroporto :







RITROVATECI SU...

 
LOGIN :

Iscrizione | Disclaimer

   EN    FR    IT 

 









Sommario :    VFR   VFR Marginale   IFR   IFR Intensivo   IFR Molto Intensivo
Visibilità : 
Base nubi : 
>= 8 km
>= 3000ft
5 / 8 km
1000 / 3000 ft
1500m / 5 km
500 / 1000 ft
800 / 1500m
200 / 500 ft
< 800m
< 200 ft
Simboli :   Temporali  Nebbia  Neve Forte  Precipitazioni Forti  Vento > 20 kt






- Altitudine del aeroporto : 160 ft
- Codice IATA : YYG


CYYG - Charlottetown

ULTIMO METAR :
  • 230100Z 15013G19KT 12SM -RA OVC007 05/05 A2935 RMK SF8 SLP941

METARs OBSOLETI :
  • 230011Z 15011G17KT 15SM -RA OVC009 05/03 A2939 RMK SF8 SLP957
  • 230000Z 14016G24KT 15SM -RA OVC012 05/03 A2940 RMK SC8 PRESFR SLP958
  • 222300Z 15015G25KT 15SM -RA BKN015 OVC032 04/03 A2946 RMK SC6SC2 SLP979

TAF AMD TAF CYYG
Valido dal 23 a 00 ore il 23 a 12 ore UTC


230018Z 2300/2312 15010G20KT P6SM -RA OVC010
TEMPO 2300/2303 3SM -RA BR OVC006
FM230300 23010KT 2SM -RA BR OVC005
TEMPO 2303/2308 6SM -RA BR OVC010
BECMG 2305/2307 27008KT
FM230800 28015G25KT 6SM -SHRA BR OVC010
FM231000 28020G30KT 2SM -SHSNRA OVC015 RMK NXT FCST BY 230600Z



MetMap, La meteo Aeronautica in un colpo d'occhio ! - Copyright ORBIFLY Dicembre 2007 - Disclaimer

ORBIFLY MET'MAP TEAM :

Programmazione e sviluppo : Alexandra Zaïnal
Concezione e sviluppo : Baudouin d'Aumeries
Co-Programmazione e sviluppo : Marc-Olivier Méhu
Supporto tecnico e logistico : Manuel Goepfert
Aiuto per la traduzione : Arnaldo La Scala

Contatto : metmap@orbifly.com




FONTI E CREDITI :

   NOAA